This is the latest recevied weather packets stored in our database for station/object NZ3C. If no packets are shown the sender has not sent any weather packets the latest 1 day(s).
| Time | Temp. | Humidity | Pressure | Rain* | Wind** | Luminosity | Snow |
|---|---|---|---|---|---|---|---|
| 1778016375 | 26.67° C | 42% | 1016.2 hPa | 0 mm | 0.89 m/s, 230° | 182 W/m² | - |
| 1778016073 | 26.67° C | 42% | 1016.5 hPa | 0 mm | 0.89 m/s, 234° | 137 W/m² | - |
| 1778015769 | 26.67° C | 41% | 1016.3 hPa | 0 mm | 0.45 m/s, 207° | 123 W/m² | - |
| 1778015467 | 27.22° C | 41% | 1016.3 hPa | 0 mm | 1.34 m/s, 47° | 278 W/m² | - |
| 1778015163 | 27.78° C | 41% | 1016.2 hPa | 0 mm | 1.34 m/s, 26° | 436 W/m² | - |
| 1778014860 | 27.22° C | 42% | 1016.2 hPa | 0 mm | 2.24 m/s, 99° | 449 W/m² | - |
| 1778014558 | 27.78° C | 41% | 1016.2 hPa | 0 mm | 0.89 m/s, 278° | 489 W/m² | - |
| 1778014255 | 28.33° C | 38% | 1016.2 hPa | 0 mm | 1.79 m/s, 331° | 516 W/m² | - |
| 1778013952 | 27.78° C | 40% | 1016.1 hPa | 0 mm | 0.89 m/s, 310° | 530 W/m² | - |
| 1778013649 | 27.78° C | 40% | 1016 hPa | 0 mm | 1.34 m/s, 68° | 553 W/m² | - |
| 1778013346 | 27.22° C | 40% | 1016.3 hPa | 0 mm | 0.45 m/s, 246° | 586 W/m² | - |
| 1778013043 | 27.22° C | 41% | 1016.1 hPa | 0 mm | 1.79 m/s, 57° | 428 W/m² | - |
| 1778012739 | 27.22° C | 41% | 1016.1 hPa | 0 mm | 1.34 m/s, 244° | 450 W/m² | - |
| 1778012435 | 27.78° C | 40% | 1016.2 hPa | 0 mm | 0.89 m/s, 106° | 471 W/m² | - |
| 1778012132 | 27.78° C | 39% | 1016.4 hPa | 0 mm | 3.58 m/s, 109° | 659 W/m² | - |
| 1778011830 | 27.22° C | 41% | 1016.6 hPa | 0 mm | 0.45 m/s, 263° | 292 W/m² | - |
| 1778011528 | 27.22° C | 40% | 1016.7 hPa | 0 mm | 0.89 m/s, 98° | 568 W/m² | - |
| 1778011224 | 27.22° C | 41% | 1016.7 hPa | 0 mm | 0.45 m/s, 318° | 298 W/m² | - |
| 1778010920 | 27.78° C | 42% | 1016.6 hPa | 0 mm | 0.89 m/s, 44° | 385 W/m² | - |
| 1778010618 | 27.78° C | 41% | 1016.5 hPa | 0 mm | 1.34 m/s, 234° | 779 W/m² | - |
| 1778010315 | 27.78° C | 40% | 1016.6 hPa | 0 mm | 1.34 m/s, 323° | 794 W/m² | - |
| 1778010010 | 27.78° C | 42% | 1017.2 hPa | 0 mm | 0.45 m/s, 291° | 524 W/m² | - |
| 1778009708 | 27.78° C | 39% | 1017.1 hPa | 0 mm | 1.34 m/s, 192° | 582 W/m² | - |
| 1778009405 | 27.78° C | 39% | 1017.2 hPa | 0 mm | 0.89 m/s, 101° | 578 W/m² | - |
| 1778009103 | 27.78° C | 39% | 1017.1 hPa | 0 mm | 1.79 m/s, 240° | 554 W/m² | - |
* Rain latest hour (hover to see other rain measurements)
** Current wind speed in m/s (hover to see current wind gust speed)